createdAt,value
2023-03-17T00:01:18.517Z,10.72
2023-03-17T00:05:18.504Z,10.32
2023-03-17T00:09:18.432Z,10.08
2023-03-17T00:13:18.447Z,10.09
2023-03-17T00:17:18.606Z,10.25
2023-03-17T00:21:18.954Z,10.52
2023-03-17T00:25:18.806Z,10.43
2023-03-17T00:29:19.004Z,10.60
2023-03-17T00:33:18.999Z,10.59
2023-03-17T00:37:19.111Z,10.32
2023-03-17T00:41:19.241Z,10.57
2023-03-17T00:45:19.431Z,10.63
2023-03-17T00:49:19.397Z,10.62
2023-03-17T00:53:19.343Z,10.56
2023-03-17T00:57:19.378Z,10.48
2023-03-17T01:01:19.342Z,10.32
2023-03-17T01:05:19.250Z,10.24
2023-03-17T01:09:19.281Z,10.14
2023-03-17T01:13:19.267Z,10.05
2023-03-17T01:17:19.112Z,9.91
2023-03-17T01:21:19.230Z,9.49
2023-03-17T01:25:19.063Z,9.57
2023-03-17T01:29:19.144Z,9.49
2023-03-17T01:33:19.024Z,9.87
2023-03-17T01:37:19.006Z,10.04
2023-03-17T01:41:18.970Z,10.17
2023-03-17T01:45:18.990Z,10.19
2023-03-17T01:49:18.888Z,10.15
2023-03-17T01:53:18.844Z,10.14
2023-03-17T01:57:18.783Z,10.21
2023-03-17T02:01:18.819Z,10.24
2023-03-17T02:05:18.766Z,9.93
2023-03-17T02:09:18.697Z,9.90
2023-03-17T02:13:18.647Z,9.79
2023-03-17T02:17:18.610Z,9.69
2023-03-17T02:21:18.666Z,9.81
2023-03-17T02:28:58.464Z,9.57
2023-03-17T02:32:58.458Z,9.31
2023-03-17T02:36:58.439Z,9.63
2023-03-17T02:40:58.353Z,9.76
2023-03-17T02:44:58.297Z,9.90
2023-03-17T02:48:58.281Z,9.53
2023-03-17T02:52:58.217Z,9.28
2023-03-17T02:56:58.211Z,9.35
2023-03-17T03:00:58.173Z,9.55
2023-03-17T03:04:58.127Z,9.45
2023-03-17T03:08:58.090Z,9.60
2023-03-17T03:12:58.072Z,9.45
2023-03-17T03:16:58.013Z,9.42
2023-03-17T03:20:58.102Z,8.97
2023-03-17T03:24:57.981Z,9.17
2023-03-17T03:28:57.921Z,9.28
2023-03-17T03:32:58.067Z,9.55
2023-03-17T03:36:57.907Z,9.62
2023-03-17T03:40:57.965Z,9.62
2023-03-17T03:44:58.098Z,9.62
2023-03-17T03:48:58.207Z,9.15
2023-03-17T03:52:58.314Z,9.08
2023-03-17T03:56:58.499Z,9.35
2023-03-17T04:00:58.672Z,9.04
2023-03-17T04:04:58.828Z,8.81
2023-03-17T04:08:58.916Z,8.86
2023-03-17T04:12:59.085Z,8.76
2023-03-17T04:16:59.034Z,8.94
2023-03-17T04:20:59.017Z,9.18
2023-03-17T04:24:58.984Z,9.24
2023-03-17T04:28:58.941Z,8.95
2023-03-17T04:32:58.984Z,9.08
2023-03-17T04:36:59.178Z,9.19
2023-03-17T04:40:58.894Z,9.19
2023-03-17T04:44:58.893Z,8.49
2023-03-17T04:48:58.728Z,8.86
2023-03-17T04:52:58.729Z,9.07
2023-03-17T04:56:58.682Z,9.34
2023-03-17T05:00:58.849Z,9.39
2023-03-17T05:04:58.998Z,9.28
2023-03-17T05:08:59.151Z,9.03
2023-03-17T05:12:59.317Z,9.25
2023-03-17T05:16:59.462Z,8.84
2023-03-17T05:20:59.571Z,9.24
2023-03-17T05:24:59.693Z,9.17
2023-03-17T05:28:59.930Z,9.12
2023-03-17T05:32:59.930Z,9.34
2023-03-17T05:36:59.830Z,9.49
2023-03-17T05:40:59.820Z,9.47
2023-03-17T05:44:59.791Z,9.04
2023-03-17T05:48:59.750Z,9.10
2023-03-17T05:52:59.684Z,9.00
2023-03-17T05:56:59.676Z,9.14
2023-03-17T06:00:59.647Z,9.18
2023-03-17T06:04:59.611Z,9.07
2023-03-17T06:08:59.673Z,9.42
2023-03-17T06:12:59.521Z,9.14
2023-03-17T06:16:59.607Z,9.06
2023-03-17T06:20:59.696Z,9.03
2023-03-17T06:24:59.704Z,9.43
2023-03-17T06:28:59.756Z,9.62
2023-03-17T06:32:59.782Z,9.47
2023-03-17T06:36:59.962Z,9.76
2023-03-17T06:40:59.893Z,9.86
2023-03-17T06:44:59.987Z,9.70
2023-03-17T06:49:00.067Z,9.52
2023-03-17T06:53:00.114Z,9.87
2023-03-17T06:57:00.094Z,10.01
2023-03-17T07:01:00.099Z,10.25
2023-03-17T07:05:00.380Z,10.19
2023-03-17T07:09:02.171Z,10.34
2023-03-17T07:13:00.265Z,10.22
2023-03-17T07:17:00.313Z,10.00
2023-03-17T07:21:00.701Z,10.09
2023-03-17T07:25:00.725Z,10.32
2023-03-17T07:29:00.882Z,10.24
2023-03-17T07:33:00.923Z,10.11
2023-03-17T07:37:01.096Z,10.08
2023-03-17T07:41:00.965Z,10.42
2023-03-17T07:45:00.976Z,10.15
2023-03-17T07:49:01.158Z,10.35
2023-03-17T07:53:01.102Z,10.25
2023-03-17T07:57:01.263Z,10.38
2023-03-17T08:01:01.228Z,10.63
2023-03-17T08:05:01.104Z,10.77
2023-03-17T08:09:01.235Z,10.38
2023-03-17T08:13:01.338Z,10.72
2023-03-17T08:17:01.312Z,10.42
2023-03-17T08:21:01.269Z,10.80
2023-03-17T08:25:01.257Z,11.04
2023-03-17T08:29:01.186Z,11.01
2023-03-17T08:33:01.234Z,11.38
2023-03-17T08:37:01.074Z,11.07
2023-03-17T08:41:01.099Z,11.01
2023-03-17T08:45:01.013Z,11.31
2023-03-17T08:49:01.023Z,11.65
2023-03-17T08:53:00.977Z,11.80
2023-03-17T08:57:00.914Z,11.61
2023-03-17T09:01:00.890Z,11.84
2023-03-17T09:05:00.864Z,12.13
2023-03-17T09:09:00.808Z,12.36
2023-03-17T09:13:00.827Z,12.41
2023-03-17T09:17:01.032Z,12.63
2023-03-17T09:21:01.183Z,12.75
2023-03-17T09:25:01.062Z,13.00
2023-03-17T09:29:03.739Z,13.17
2023-03-17T09:33:01.196Z,13.27
2023-03-17T09:37:01.082Z,13.35
2023-03-17T09:41:01.043Z,13.41
2023-03-17T09:45:01.015Z,13.37
2023-03-17T09:49:01.000Z,13.65
2023-03-17T09:53:03.726Z,13.62
2023-03-17T09:57:00.892Z,13.62
2023-03-17T10:01:00.832Z,13.83
2023-03-17T10:05:00.884Z,14.00
2023-03-17T10:09:00.969Z,14.13
2023-03-17T10:13:00.832Z,14.13
2023-03-17T10:17:00.723Z,14.31
2023-03-17T10:21:00.739Z,14.59
2023-03-17T10:25:03.151Z,14.75
2023-03-17T10:29:00.793Z,14.94
2023-03-17T10:33:00.630Z,15.08
2023-03-17T10:37:00.593Z,15.01
2023-03-17T10:41:00.570Z,15.17
2023-03-17T10:45:00.490Z,15.34
2023-03-17T10:49:00.486Z,15.49
2023-03-17T10:53:00.459Z,15.53
2023-03-17T10:57:00.374Z,15.62
2023-03-17T11:01:00.470Z,15.86
2023-03-17T11:05:00.316Z,15.92
2023-03-17T11:09:00.314Z,15.89
2023-03-17T11:13:00.244Z,16.25
2023-03-17T11:17:00.267Z,16.23
2023-03-17T11:21:00.179Z,16.51
2023-03-17T11:25:00.219Z,16.66
2023-03-17T11:29:00.227Z,16.56
2023-03-17T11:33:00.392Z,16.66
2023-03-17T11:37:00.392Z,16.97
2023-03-17T11:41:00.518Z,17.20
2023-03-17T11:45:00.742Z,17.23
2023-03-17T11:49:00.962Z,17.23
2023-03-17T11:53:01.038Z,17.55
2023-03-17T11:57:01.218Z,17.72
2023-03-17T12:01:01.264Z,17.93
2023-03-17T12:05:01.339Z,18.04
2023-03-17T12:09:01.377Z,18.11
2023-03-17T12:13:01.407Z,18.30
2023-03-17T12:17:01.625Z,18.40
2023-03-17T12:21:01.816Z,18.55
2023-03-17T12:25:01.952Z,18.63
2023-03-17T12:29:02.208Z,18.88
2023-03-17T12:33:02.120Z,19.05
2023-03-17T12:37:02.368Z,19.24
2023-03-17T12:41:02.413Z,19.34
2023-03-17T12:45:02.672Z,19.10
2023-03-17T12:49:02.808Z,19.02
2023-03-17T12:53:02.931Z,19.17
2023-03-17T12:57:02.957Z,19.20
2023-03-17T13:01:02.861Z,19.27
2023-03-17T13:05:02.834Z,19.33
2023-03-17T13:09:02.930Z,19.35
2023-03-17T13:13:02.803Z,19.16
2023-03-17T13:17:02.678Z,19.24
2023-03-17T13:21:02.683Z,19.62
2023-03-17T13:25:02.690Z,19.72
2023-03-17T13:29:02.628Z,19.76
2023-03-17T13:33:02.648Z,19.92
2023-03-17T13:37:02.614Z,19.99
2023-03-17T13:41:02.610Z,20.00
2023-03-17T13:45:02.691Z,20.14
2023-03-17T13:49:02.886Z,20.31
2023-03-17T13:53:03.106Z,20.27
2023-03-17T13:57:03.179Z,20.44
2023-03-17T14:01:14.425Z,20.47
2023-03-17T14:05:03.301Z,20.58
2023-03-17T14:09:03.269Z,20.44
2023-03-17T14:13:03.196Z,20.44
2023-03-17T14:17:03.367Z,20.61
2023-03-17T14:21:04.684Z,20.65
2023-03-17T14:25:03.443Z,20.72
2023-03-17T14:29:03.436Z,20.55
2023-03-17T14:33:03.394Z,20.48
2023-03-17T14:37:03.267Z,20.51
2023-03-17T14:41:03.248Z,20.67
2023-03-17T14:45:03.217Z,20.56
2023-03-17T14:49:03.176Z,20.67
2023-03-17T14:53:03.187Z,20.68
2023-03-17T14:57:03.247Z,20.55
2023-03-17T15:01:03.110Z,20.64
2023-03-17T15:05:02.973Z,20.67
2023-03-17T15:09:03.173Z,20.33
2023-03-17T15:13:03.122Z,20.45
2023-03-17T15:17:03.044Z,20.34
2023-03-17T15:21:02.904Z,20.31
2023-03-17T15:25:02.891Z,20.38
2023-03-17T15:29:02.852Z,20.31
2023-03-17T15:33:03.024Z,20.28
2023-03-17T15:37:03.082Z,20.20
2023-03-17T15:41:03.191Z,20.14
2023-03-17T15:45:03.244Z,19.82
2023-03-17T15:49:03.290Z,19.83
2023-03-17T15:53:03.412Z,19.70
2023-03-17T15:57:03.529Z,19.61
2023-03-17T16:01:03.648Z,19.66
2023-03-17T16:05:03.752Z,19.78
2023-03-17T16:09:04.006Z,19.65
2023-03-17T16:13:03.997Z,19.65
2023-03-17T16:17:04.230Z,19.54
2023-03-17T16:21:04.100Z,19.68
2023-03-17T16:25:04.304Z,19.59
2023-03-17T16:29:06.215Z,19.33
2023-03-17T16:33:04.618Z,19.47
2023-03-17T16:37:04.569Z,19.16
2023-03-17T16:41:04.315Z,19.35
2023-03-17T16:45:04.289Z,19.41
2023-03-17T16:49:04.319Z,19.23
2023-03-17T16:53:04.244Z,19.21
2023-03-17T16:57:06.052Z,19.39
2023-03-17T17:01:04.144Z,19.25
2023-03-17T17:05:04.164Z,19.21
2023-03-17T17:09:04.102Z,19.05
2023-03-17T17:13:05.914Z,19.07
2023-03-17T17:17:03.975Z,18.90
2023-03-17T17:21:03.978Z,18.80
2023-03-17T17:25:03.936Z,18.61
2023-03-17T17:29:03.916Z,18.78
2023-03-17T17:33:03.841Z,18.73
2023-03-17T17:37:03.822Z,18.89
2023-03-17T17:41:03.747Z,18.76
2023-03-17T17:45:03.756Z,18.85
2023-03-17T17:49:03.696Z,18.68
2023-03-17T17:53:03.671Z,18.72
2023-03-17T17:57:03.747Z,18.56
2023-03-17T18:01:03.673Z,18.35
2023-03-17T18:05:03.743Z,18.24
2023-03-17T18:09:03.860Z,18.25
2023-03-17T18:13:03.961Z,18.41
2023-03-17T18:17:04.142Z,17.97
2023-03-17T18:21:04.328Z,18.13
2023-03-17T18:25:04.465Z,18.20
2023-03-17T18:29:04.703Z,18.27
2023-03-17T18:33:04.763Z,18.30
2023-03-17T18:37:04.628Z,18.11
2023-03-17T18:41:04.615Z,17.97
2023-03-17T18:45:04.540Z,17.85
2023-03-17T18:49:04.454Z,18.11
2023-03-17T18:53:04.521Z,18.07
2023-03-17T18:57:04.405Z,17.72
2023-03-17T19:01:04.462Z,17.92
2023-03-17T19:05:04.353Z,18.07
2023-03-17T19:09:04.290Z,18.11
2023-03-17T19:13:04.241Z,17.97
2023-03-17T19:17:04.240Z,17.86
2023-03-17T19:21:04.200Z,17.80
2023-03-17T19:25:04.121Z,17.85
2023-03-17T19:29:04.104Z,17.85
2023-03-17T19:33:04.213Z,17.61
2023-03-17T19:37:04.045Z,17.78
2023-03-17T19:41:03.993Z,17.94
2023-03-17T19:45:03.979Z,17.28
2023-03-17T19:49:04.075Z,17.35
2023-03-17T19:53:04.228Z,17.34
2023-03-17T19:57:04.290Z,17.25
2023-03-17T20:01:04.358Z,17.38
2023-03-17T20:13:53.715Z,17.64
2023-03-17T20:17:43.503Z,17.52
2023-03-17T20:21:43.364Z,17.62
2023-03-17T20:25:43.372Z,17.20
2023-03-17T20:29:43.294Z,17.10
2023-03-17T20:33:43.299Z,16.83
2023-03-17T20:37:43.251Z,16.76
2023-03-17T20:41:43.274Z,16.59
2023-03-17T20:45:43.302Z,16.25
2023-03-17T20:49:43.483Z,16.07
2023-03-17T20:53:43.526Z,16.28
2023-03-17T20:57:43.469Z,16.16
2023-03-17T21:01:43.516Z,16.06
2023-03-17T21:05:43.371Z,16.01
2023-03-17T21:09:43.371Z,16.20
2023-03-17T21:13:43.350Z,15.92
2023-03-17T21:17:43.270Z,15.83
2023-03-17T21:21:43.290Z,15.68
2023-03-17T21:25:43.208Z,15.55
2023-03-17T21:29:43.136Z,15.63
2023-03-17T21:33:43.092Z,15.87
2023-03-17T21:37:43.228Z,15.61
2023-03-17T21:41:42.995Z,15.65
2023-03-17T21:45:43.037Z,15.92
2023-03-17T21:49:42.984Z,15.76
2023-03-17T21:53:42.881Z,16.03
2023-03-17T21:57:42.853Z,16.17
2023-03-17T22:01:43.130Z,16.17
2023-03-17T22:05:42.997Z,16.24
2023-03-17T22:09:42.978Z,15.87
2023-03-17T22:13:43.059Z,15.61
2023-03-17T22:17:43.050Z,15.74
2023-03-17T22:21:42.897Z,15.86
2023-03-17T22:25:42.997Z,15.68
2023-03-17T22:29:43.015Z,15.79
2023-03-17T22:33:42.809Z,15.87
2023-03-17T22:37:42.728Z,15.92
2023-03-17T22:41:42.712Z,15.89
2023-03-17T22:45:42.734Z,15.85
2023-03-17T22:49:42.645Z,15.82
2023-03-17T22:53:42.617Z,15.82
2023-03-17T22:57:42.564Z,15.73
2023-03-17T23:01:42.533Z,15.52
2023-03-17T23:05:42.480Z,15.35
2023-03-17T23:09:42.550Z,15.18
2023-03-17T23:13:42.780Z,15.03
2023-03-17T23:17:42.695Z,15.03
2023-03-17T23:21:42.688Z,15.11
2023-03-17T23:25:42.639Z,15.10
2023-03-17T23:29:42.607Z,15.21
2023-03-17T23:33:42.570Z,15.27
2023-03-17T23:37:42.574Z,15.10
2023-03-17T23:41:42.443Z,14.93
2023-03-17T23:45:42.542Z,14.58
2023-03-17T23:49:42.477Z,14.83
2023-03-17T23:53:42.398Z,14.90
2023-03-17T23:57:42.337Z,15.00
